createdAt,value
2023-05-08T00:01:02.018Z,102069.00
2023-05-08T00:03:28.717Z,102071.72
2023-05-08T00:05:58.104Z,102072.56
2023-05-08T00:08:24.778Z,102067.97
2023-05-08T00:10:51.198Z,102074.06
2023-05-08T00:13:17.672Z,102065.91
2023-05-08T00:15:44.160Z,102065.91
2023-05-08T00:18:10.612Z,102053.38
2023-05-08T00:20:37.788Z,102052.53
2023-05-08T00:23:04.645Z,102070.69
2023-05-08T00:25:31.979Z,102064.44
2023-05-08T00:27:59.418Z,102056.50
2023-05-08T00:30:25.953Z,102061.25
2023-05-08T00:32:52.766Z,102049.78
2023-05-08T00:35:19.917Z,102060.81
2023-05-08T00:37:46.470Z,102056.63
2023-05-08T00:40:13.204Z,102068.53
2023-05-08T00:42:40.085Z,102067.50
2023-05-08T00:45:07.141Z,102067.50
2023-05-08T00:47:34.414Z,102054.09
2023-05-08T00:50:01.234Z,102065.16
2023-05-08T00:52:30.842Z,102059.50
2023-05-08T00:54:57.765Z,102063.41
2023-05-08T00:57:24.507Z,102061.97
2023-05-08T00:59:52.486Z,102061.31
2023-05-08T01:02:20.926Z,102053.38
2023-05-08T01:04:48.429Z,102053.53
2023-05-08T01:07:14.923Z,102056.25
2023-05-08T01:09:41.369Z,102066.28
2023-05-08T01:12:27.215Z,102062.94
2023-05-08T01:15:06.073Z,102061.63
2023-05-08T01:17:36.825Z,102054.72
2023-05-08T01:20:28.488Z,102062.03
2023-05-08T01:23:19.629Z,102065.94
2023-05-08T01:25:51.957Z,102065.31
2023-05-08T01:28:30.540Z,102054.84
2023-05-08T01:31:37.963Z,102063.00
2023-05-08T01:34:19.447Z,102060.88
2023-05-08T01:36:58.351Z,102061.03
2023-05-08T01:39:49.896Z,102063.31
2023-05-08T01:42:27.583Z,102059.13
2023-05-08T01:44:59.298Z,102056.78
2023-05-08T01:47:29.781Z,102073.25
2023-05-08T01:50:05.532Z,102069.88
2023-05-08T01:52:37.073Z,102069.03
2023-05-08T01:55:08.569Z,102055.50
2023-05-08T01:57:40.182Z,102062.78
2023-05-08T02:00:09.241Z,102061.97
2023-05-08T02:02:40.202Z,102064.00
2023-05-08T02:05:08.710Z,102070.28
2023-05-08T02:07:38.148Z,102073.38
2023-05-08T02:10:06.195Z,102078.13
2023-05-08T02:12:33.581Z,102074.78
2023-05-08T02:15:01.793Z,102076.66
2023-05-08T02:17:30.199Z,102078.72
2023-05-08T02:20:00.043Z,102076.38
2023-05-08T02:22:28.026Z,102075.53
2023-05-08T02:24:56.418Z,102071.38
2023-05-08T02:27:26.372Z,102073.25
2023-05-08T02:29:54.484Z,102076.13
2023-05-08T02:32:25.060Z,102077.38
2023-05-08T02:35:02.406Z,102077.53
2023-05-08T02:37:31.083Z,102077.75
2023-05-08T02:39:58.802Z,102076.06
2023-05-08T02:42:25.536Z,102079.97
2023-05-08T02:44:51.997Z,102072.91
2023-05-08T02:47:27.577Z,102075.59
2023-05-08T02:50:03.765Z,102074.94
2023-05-08T02:52:35.289Z,102073.25
2023-05-08T02:55:15.010Z,102061.59
2023-05-08T02:57:50.895Z,102057.38
2023-05-08T03:00:20.256Z,102062.31
2023-05-08T03:02:54.560Z,102063.53
2023-05-08T03:05:30.438Z,102059.34
2023-05-08T03:08:08.034Z,102054.75
2023-05-08T03:10:36.388Z,102055.13
2023-05-08T03:13:05.937Z,102057.38
2023-05-08T03:15:37.534Z,102056.72
2023-05-08T03:18:10.317Z,102056.06
2023-05-08T03:20:42.803Z,102050.84
2023-05-08T03:23:13.235Z,102044.78
2023-05-08T03:25:43.712Z,102053.09
2023-05-08T03:28:14.080Z,102048.72
2023-05-08T03:30:42.123Z,102046.22
2023-05-08T03:33:13.046Z,102047.41
2023-05-08T03:35:39.950Z,102048.63
2023-05-08T03:38:08.511Z,102049.66
2023-05-08T03:40:38.989Z,102052.38
2023-05-08T03:43:07.784Z,102046.94
2023-05-08T03:45:39.806Z,102048.16
2023-05-08T03:48:08.100Z,102051.06
2023-05-08T03:50:36.919Z,102047.31
2023-05-08T03:53:05.568Z,102045.63
2023-05-08T03:55:33.294Z,102049.19
2023-05-08T03:58:19.886Z,102047.72
2023-05-08T04:00:59.447Z,102055.84
2023-05-08T04:03:30.634Z,102052.25
2023-05-08T04:06:10.008Z,102051.44
2023-05-08T04:08:48.285Z,102055.16
2023-05-08T04:11:30.400Z,102051.81
2023-05-08T04:14:08.359Z,102049.75
2023-05-08T04:16:39.818Z,102058.91
2023-05-08T04:19:18.028Z,102058.06
2023-05-08T04:21:44.904Z,102060.59
2023-05-08T04:24:14.651Z,102055.16
2023-05-08T04:26:42.755Z,102061.41
2023-05-08T04:29:09.559Z,102062.25
2023-05-08T04:31:37.437Z,102062.94
2023-05-08T04:34:04.525Z,102058.97
2023-05-08T04:36:31.886Z,102071.69
2023-05-08T04:38:59.835Z,102074.03
2023-05-08T04:41:27.003Z,102070.94
2023-05-08T04:43:54.368Z,102079.72
2023-05-08T04:46:21.037Z,102072.41
2023-05-08T04:48:47.597Z,102076.63
2023-05-08T04:51:14.093Z,102076.63
2023-05-08T04:53:40.604Z,102082.72
2023-05-08T04:56:07.095Z,102085.44
2023-05-08T04:58:34.260Z,102101.28
2023-05-08T05:01:04.664Z,102094.84
2023-05-08T05:03:32.543Z,102098.56
2023-05-08T05:06:01.531Z,102097.94
2023-05-08T05:08:28.236Z,102106.06
2023-05-08T05:10:56.045Z,102103.16
2023-05-08T05:13:22.667Z,102101.09
2023-05-08T05:15:51.372Z,102100.06
2023-05-08T05:18:18.371Z,102107.84
2023-05-08T05:20:44.929Z,102098.88
2023-05-08T05:23:12.154Z,102112.69
2023-05-08T05:25:39.001Z,102103.50
2023-05-08T05:28:05.514Z,102105.84
2023-05-08T05:30:32.177Z,102102.78
2023-05-08T05:32:58.793Z,102106.81
2023-05-08T05:35:25.701Z,102110.84
2023-05-08T05:37:52.967Z,102111.28
2023-05-08T05:40:20.224Z,102116.31
2023-05-08T05:42:50.848Z,102118.00
2023-05-08T05:45:18.354Z,102120.91
2023-05-08T05:47:54.030Z,102116.50
2023-05-08T05:50:22.612Z,102120.06
2023-05-08T05:52:50.296Z,102124.28
2023-05-08T05:55:17.159Z,102119.69
2023-05-08T05:57:46.141Z,102118.84
2023-05-08T06:00:12.993Z,102118.75
2023-05-08T06:02:45.436Z,102121.25
2023-05-08T06:05:15.222Z,102131.56
2023-05-08T06:07:41.859Z,102127.44
2023-05-08T06:10:08.581Z,102132.09
2023-05-08T06:12:35.654Z,102132.56
2023-05-08T06:15:03.200Z,102132.19
2023-05-08T06:17:29.695Z,102133.66
2023-05-08T06:19:56.557Z,102139.72
2023-05-08T06:22:24.177Z,102137.66
2023-05-08T06:24:54.249Z,102130.19
2023-05-08T06:27:22.163Z,102132.69
2023-05-08T06:29:51.648Z,102140.84
2023-05-08T06:32:18.303Z,102136.72
2023-05-08T06:34:45.113Z,102136.53
2023-05-08T06:37:11.732Z,102141.97
2023-05-08T06:39:38.331Z,102140.91
2023-05-08T06:42:08.172Z,102141.38
2023-05-08T06:44:38.091Z,102138.47
2023-05-08T06:47:04.488Z,102133.88
2023-05-08T06:49:30.941Z,102134.91
2023-05-08T06:51:58.122Z,102138.47
2023-05-08T06:54:24.888Z,102129.88
2023-05-08T06:56:52.782Z,102138.00
2023-05-08T06:59:19.174Z,102127.53
2023-05-08T07:01:45.744Z,102132.13
2023-05-08T07:04:12.409Z,102133.41
2023-05-08T07:06:38.861Z,102128.44
2023-05-08T07:09:05.286Z,102129.56
2023-05-08T07:11:31.753Z,102127.31
2023-05-08T07:13:58.141Z,102136.94
2023-05-08T07:16:24.649Z,102135.72
2023-05-08T07:18:51.163Z,102134.47
2023-05-08T07:21:18.731Z,102134.91
2023-05-08T07:23:45.124Z,102133.72
2023-05-08T07:26:11.679Z,102137.91
2023-05-08T07:28:38.090Z,102132.50
2023-05-08T07:31:07.095Z,102132.91
2023-05-08T07:33:34.546Z,102124.78
2023-05-08T07:36:01.420Z,102127.94
2023-05-08T07:38:28.039Z,102125.88
2023-05-08T07:40:57.519Z,102124.66
2023-05-08T07:43:24.325Z,102129.06
2023-05-08T07:45:51.066Z,102127.19
2023-05-08T07:48:17.528Z,102125.09
2023-05-08T07:50:44.601Z,102130.16
2023-05-08T07:53:11.196Z,102132.47
2023-05-08T07:55:37.557Z,102131.44
2023-05-08T07:58:03.961Z,102128.72
2023-05-08T08:00:30.459Z,102124.13
2023-05-08T08:02:57.458Z,102124.56
2023-05-08T08:05:24.233Z,102122.31
2023-05-08T08:07:50.644Z,102120.22
2023-05-08T08:10:17.248Z,102116.28
2023-05-08T08:12:43.722Z,102112.19
2023-05-08T08:15:10.714Z,102119.72
2023-05-08T08:17:37.698Z,102120.38
2023-05-08T08:20:04.757Z,102118.13
2023-05-08T08:22:31.156Z,102118.75
2023-05-08T08:24:57.629Z,102121.06
2023-05-08T08:27:24.136Z,102120.03
2023-05-08T08:29:52.521Z,102115.03
2023-05-08T08:32:25.231Z,102123.84
2023-05-08T08:34:51.774Z,102114.66
2023-05-08T08:37:18.707Z,102124.25
2023-05-08T08:39:45.260Z,102129.31
2023-05-08T08:42:12.288Z,102134.75
2023-05-08T08:44:40.060Z,102132.03
2023-05-08T08:47:10.305Z,102127.44
2023-05-08T08:49:43.423Z,102130.97
2023-05-08T08:52:28.607Z,102127.25
2023-05-08T08:54:57.331Z,102127.25
2023-05-08T08:57:25.583Z,102129.13
2023-05-08T08:59:53.856Z,102123.50
2023-05-08T09:02:23.694Z,102127.69
2023-05-08T09:04:50.175Z,102126.00
2023-05-08T09:07:17.882Z,102123.94
2023-05-08T09:09:45.833Z,102120.16
2023-05-08T09:12:13.665Z,102124.38
2023-05-08T09:14:40.230Z,102128.75
2023-05-08T09:17:07.011Z,102126.66
2023-05-08T09:19:34.509Z,102128.38
2023-05-08T09:22:01.396Z,102131.53
2023-05-08T09:24:53.540Z,102141.59
2023-05-08T09:27:30.264Z,102128.44
2023-05-08T09:30:04.477Z,102140.81
2023-05-08T09:32:32.476Z,102137.22
2023-05-08T09:34:59.577Z,102134.09
2023-05-08T09:37:27.550Z,102139.16
2023-05-08T09:39:54.851Z,102136.22
2023-05-08T09:42:21.337Z,102132.03
2023-05-08T09:44:52.842Z,102133.31
2023-05-08T09:47:21.811Z,102133.31
2023-05-08T09:50:07.689Z,102128.75
2023-05-08T09:52:35.609Z,102128.34
2023-05-08T09:55:08.709Z,102135.47
2023-05-08T09:57:40.381Z,102136.09
2023-05-08T10:00:14.543Z,102134.03
2023-05-08T10:02:42.258Z,102133.16
2023-05-08T10:05:32.064Z,102133.81
2023-05-08T10:08:00.031Z,102135.94
2023-05-08T10:10:28.466Z,102135.13
2023-05-08T10:12:56.296Z,102136.41
2023-05-08T10:15:33.493Z,102138.28
2023-05-08T10:18:04.735Z,102138.13
2023-05-08T10:20:32.977Z,102136.88
2023-05-08T10:23:00.786Z,102133.75
2023-05-08T10:25:34.664Z,102134.81
2023-05-08T10:28:14.540Z,102140.03
2023-05-08T10:30:47.385Z,102134.19
2023-05-08T10:33:15.585Z,102136.91
2023-05-08T10:35:42.394Z,102140.47
2023-05-08T10:38:09.773Z,102137.75
2023-05-08T10:40:38.138Z,102134.19
2023-05-08T10:43:07.191Z,102136.28
2023-05-08T10:45:34.455Z,102130.47
2023-05-08T10:48:16.136Z,102122.72
2023-05-08T10:51:03.026Z,102131.75
2023-05-08T10:53:51.576Z,102121.06
2023-05-08T10:56:18.068Z,102123.81
2023-05-08T10:58:44.501Z,102126.31
2023-05-08T11:01:12.451Z,102132.38
2023-05-08T11:03:50.590Z,102131.53
2023-05-08T11:06:18.856Z,102128.84
2023-05-08T11:08:48.024Z,102131.16
2023-05-08T11:11:26.879Z,102129.03
2023-05-08T11:14:11.284Z,102134.09
2023-05-08T11:17:03.858Z,102129.69
2023-05-08T11:19:30.849Z,102120.88
2023-05-08T11:22:19.205Z,102109.81
2023-05-08T11:24:57.982Z,102114.00
2023-05-08T11:27:49.222Z,102107.13
2023-05-08T11:30:37.820Z,102102.28
2023-05-08T11:33:04.700Z,102097.69
2023-05-08T11:35:45.175Z,102096.41
2023-05-08T11:38:19.257Z,102087.59
2023-05-08T11:40:53.101Z,102082.34
2023-05-08T11:43:25.053Z,102090.06
2023-05-08T11:45:52.551Z,102091.38
2023-05-08T11:48:19.612Z,102093.63
2023-05-08T11:50:46.918Z,102095.06
2023-05-08T11:53:13.544Z,102087.94
2023-05-08T11:55:40.111Z,102082.91
2023-05-08T11:58:13.401Z,102082.91
2023-05-08T12:00:45.004Z,102077.91
2023-05-08T12:03:16.752Z,102077.28
2023-05-08T12:05:44.010Z,102077.69
2023-05-08T12:08:12.236Z,102081.06
2023-05-08T12:10:57.477Z,102084.03
2023-05-08T12:13:25.583Z,102083.84
2023-05-08T12:16:01.202Z,102077.97
2023-05-08T12:18:29.134Z,102079.22
2023-05-08T12:21:00.790Z,102076.03
2023-05-08T12:23:32.258Z,102076.84
2023-05-08T12:26:00.079Z,102061.91
2023-05-08T12:28:26.612Z,102067.94
2023-05-08T12:30:53.887Z,102067.47
2023-05-08T12:33:20.795Z,102064.47
2023-05-08T12:35:47.662Z,102068.66
2023-05-08T12:38:14.362Z,102065.09
2023-05-08T12:40:46.524Z,102061.09
2023-05-08T12:43:13.036Z,102060.22
2023-05-08T12:45:42.992Z,102063.56
2023-05-08T12:48:11.866Z,102063.75
2023-05-08T12:50:41.272Z,102057.72
2023-05-08T12:53:18.325Z,102061.03
2023-05-08T12:55:54.549Z,102056.66
2023-05-08T12:58:25.125Z,102051.03
2023-05-08T13:00:52.736Z,102048.72
2023-05-08T13:03:27.667Z,102046.81
2023-05-08T13:05:56.430Z,102039.47
2023-05-08T13:08:39.153Z,102042.84
2023-05-08T13:11:06.799Z,102040.72
2023-05-08T13:13:35.318Z,102044.28
2023-05-08T13:16:06.942Z,102045.34
2023-05-08T13:18:36.535Z,102046.81
2023-05-08T13:21:03.625Z,102039.31
2023-05-08T13:23:30.618Z,102036.56
2023-05-08T13:25:57.124Z,102040.78
2023-05-08T13:28:23.530Z,102039.28
2023-05-08T13:30:50.077Z,102039.22
2023-05-08T13:33:16.462Z,102039.78
2023-05-08T13:35:42.945Z,102035.94
2023-05-08T13:38:09.352Z,102030.19
2023-05-08T13:40:35.810Z,102030.75
2023-05-08T13:43:02.318Z,102033.25
2023-05-08T13:45:28.901Z,102030.06
2023-05-08T13:47:55.424Z,102021.19
2023-05-08T13:50:22.166Z,102030.56
2023-05-08T13:52:49.028Z,102034.34
2023-05-08T13:55:15.997Z,102023.34
2023-05-08T13:57:42.814Z,102024.81
2023-05-08T14:00:10.470Z,102025.09
2023-05-08T14:02:37.604Z,102024.28
2023-05-08T14:05:07.191Z,102022.81
2023-05-08T14:07:33.768Z,102021.69
2023-05-08T14:10:00.607Z,102013.06
2023-05-08T14:12:27.076Z,102010.09
2023-05-08T14:14:53.473Z,102019.50
2023-05-08T14:17:19.880Z,102014.88
2023-05-08T14:19:46.361Z,102015.50
2023-05-08T14:22:12.864Z,102012.75
2023-05-08T14:24:39.707Z,102008.13
2023-05-08T14:27:06.270Z,102003.94
2023-05-08T14:29:34.090Z,102011.94
2023-05-08T14:32:01.018Z,102010.66
2023-05-08T14:34:27.578Z,102013.22
2023-05-08T14:36:54.054Z,102002.28
2023-05-08T14:39:20.698Z,101999.34
2023-05-08T14:41:59.727Z,101999.72
2023-05-08T14:44:33.661Z,102000.59
2023-05-08T14:47:00.319Z,102002.47
2023-05-08T14:49:36.564Z,101999.72
2023-05-08T14:52:05.577Z,102003.91
2023-05-08T14:54:32.466Z,102002.25
2023-05-08T14:56:59.003Z,101999.34
2023-05-08T14:59:25.560Z,101994.09
2023-05-08T15:01:52.054Z,101999.78
2023-05-08T15:04:18.582Z,101993.69
2023-05-08T15:06:45.019Z,101983.84
2023-05-08T15:09:11.520Z,101981.34
2023-05-08T15:11:38.038Z,101986.63
2023-05-08T15:14:05.213Z,101984.19
2023-05-08T15:16:31.871Z,101988.44
2023-05-08T15:18:58.382Z,101994.19
2023-05-08T15:21:26.759Z,102002.44
2023-05-08T15:23:56.134Z,102002.94
2023-05-08T15:26:23.021Z,102004.06
2023-05-08T15:28:49.724Z,102005.34
2023-05-08T15:31:16.422Z,102004.94
2023-05-08T15:33:44.948Z,102002.47
2023-05-08T15:36:13.418Z,102006.94
2023-05-08T15:38:41.018Z,102010.53
2023-05-08T15:41:07.572Z,102011.38
2023-05-08T15:43:34.021Z,102013.91
2023-05-08T15:46:00.596Z,102017.47
2023-05-08T15:48:27.121Z,102015.22
2023-05-08T15:50:53.585Z,102024.44
2023-05-08T15:53:20.087Z,102018.13
2023-05-08T15:55:46.538Z,102022.16
2023-05-08T15:58:13.020Z,102029.50
2023-05-08T16:00:44.696Z,102033.28
2023-05-08T16:03:12.315Z,102036.81
2023-05-08T16:05:39.372Z,102029.50
2023-05-08T16:08:06.591Z,102030.78
2023-05-08T16:10:33.103Z,102031.38
2023-05-08T16:12:59.663Z,102019.63
2023-05-08T16:15:26.113Z,102029.50
2023-05-08T16:17:52.536Z,102020.47
2023-05-08T16:20:19.065Z,102013.75
2023-05-08T16:22:45.590Z,102003.47
2023-05-08T16:25:12.229Z,102003.25
2023-05-08T16:27:38.900Z,102001.13
2023-05-08T16:30:06.194Z,102000.91
2023-05-08T16:32:32.635Z,101996.13
2023-05-08T16:34:59.209Z,101998.28
2023-05-08T16:37:25.705Z,101992.63
2023-05-08T16:39:52.159Z,101990.53
2023-05-08T16:42:21.507Z,101985.69
2023-05-08T16:44:47.909Z,101980.47
2023-05-08T16:47:14.635Z,101984.00
2023-05-08T16:49:41.286Z,101982.56
2023-05-08T16:52:07.933Z,101976.50
2023-05-08T16:54:34.406Z,101972.72
2023-05-08T16:57:00.843Z,101980.06
2023-05-08T16:59:27.327Z,101976.50
2023-05-08T17:01:53.809Z,101977.31
2023-05-08T17:04:20.283Z,101981.94
2023-05-08T17:06:46.718Z,101983.63
2023-05-08T17:09:13.116Z,101983.41
2023-05-08T17:11:39.579Z,101989.28
2023-05-08T17:14:06.205Z,101989.97
2023-05-08T17:16:32.601Z,101983.69
2023-05-08T17:18:59.717Z,101972.63
2023-05-08T17:21:26.133Z,101973.03
2023-05-08T17:23:52.603Z,101966.75
2023-05-08T17:26:18.980Z,101971.75
2023-05-08T17:28:45.333Z,101965.69
2023-05-08T17:31:12.130Z,101957.75
2023-05-08T17:33:38.570Z,101960.91
2023-05-08T17:36:05.219Z,101967.41
2023-05-08T17:38:31.786Z,101969.50
2023-05-08T17:40:58.232Z,101969.09
2023-05-08T17:43:25.804Z,101973.31
2023-05-08T17:45:52.316Z,101972.06
2023-05-08T17:48:18.736Z,101975.88
2023-05-08T17:50:46.777Z,101979.84
2023-05-08T17:53:13.244Z,101969.59
2023-05-08T17:55:39.600Z,101970.19
2023-05-08T17:58:06.001Z,101971.03
2023-05-08T18:00:32.415Z,101974.81
2023-05-08T18:02:58.949Z,101971.25
2023-05-08T18:05:25.454Z,101961.84
2023-05-08T18:07:53.788Z,101958.88
2023-05-08T18:10:21.042Z,101968.75
2023-05-08T18:12:47.471Z,101961.22
2023-05-08T18:15:14.040Z,101968.34
2023-05-08T18:17:40.971Z,101965.63
2023-05-08T18:20:09.297Z,101957.63
2023-05-08T18:22:35.716Z,101966.88
2023-05-08T18:25:02.637Z,101965.22
2023-05-08T18:27:29.060Z,101956.19
2023-05-08T18:29:55.586Z,101960.16
2023-05-08T18:32:21.965Z,101947.41
2023-05-08T18:34:48.379Z,101938.38
2023-05-08T18:37:14.756Z,101932.34
2023-05-08T18:39:41.277Z,101924.19
2023-05-08T18:42:07.943Z,101924.19
2023-05-08T18:44:34.375Z,101932.13
2023-05-08T18:47:01.696Z,101946.63
2023-05-08T18:49:29.162Z,101960.22
2023-05-08T18:51:55.649Z,101956.88
2023-05-08T18:54:26.268Z,101959.00
2023-05-08T18:56:56.456Z,101961.31
2023-05-08T18:59:22.905Z,101955.22
2023-05-08T19:01:50.576Z,101956.06
2023-05-08T19:04:17.175Z,101956.88
2023-05-08T19:06:43.660Z,101951.88
2023-05-08T19:09:10.160Z,101958.78
2023-05-08T19:11:36.513Z,101956.47
2023-05-08T19:14:02.909Z,101954.19
2023-05-08T19:16:29.511Z,101960.25
2023-05-08T19:18:56.221Z,101957.31
2023-05-08T19:21:22.656Z,101961.94
2023-05-08T19:23:49.096Z,101970.53
2023-05-08T19:26:15.589Z,101966.13
2023-05-08T19:28:42.093Z,101973.06
2023-05-08T19:31:08.475Z,101966.78
2023-05-08T19:33:34.912Z,101977.44
2023-05-08T19:36:01.355Z,101979.34
2023-05-08T19:38:27.757Z,101979.56
2023-05-08T19:40:57.744Z,101981.44
2023-05-08T19:43:25.802Z,101982.50
2023-05-08T19:45:52.291Z,101985.41
2023-05-08T19:48:19.927Z,101982.09
2023-05-08T19:50:46.531Z,101978.53
2023-05-08T19:53:12.949Z,101988.78
2023-05-08T19:55:39.429Z,101998.84
2023-05-08T19:58:05.873Z,101998.00
2023-05-08T20:00:32.323Z,101989.19
2023-05-08T20:02:58.899Z,101991.91
2023-05-08T20:05:25.611Z,101986.69
2023-05-08T20:07:52.025Z,101982.31
2023-05-08T20:10:18.415Z,101983.34
2023-05-08T20:12:44.906Z,101980.63
2023-05-08T20:15:11.803Z,101974.34
2023-05-08T20:17:38.334Z,101980.63
2023-05-08T20:20:05.501Z,101978.75
2023-05-08T20:22:31.928Z,101977.91
2023-05-08T20:24:58.328Z,101977.50
2023-05-08T20:27:24.709Z,101975.63
2023-05-08T20:29:51.887Z,101979.16
2023-05-08T20:32:19.117Z,101969.56
2023-05-08T20:34:45.681Z,101973.13
2023-05-08T20:37:12.185Z,101975.19
2023-05-08T20:39:38.602Z,101984.63
2023-05-08T20:42:04.969Z,101990.28
2023-05-08T20:44:31.330Z,101984.84
2023-05-08T20:46:57.822Z,101978.75
2023-05-08T20:49:24.568Z,101975.19
2023-05-08T20:51:50.978Z,101975.19
2023-05-08T20:54:17.439Z,101978.97
2023-05-08T20:56:43.869Z,101977.91
2023-05-08T20:59:10.321Z,101964.75
2023-05-08T21:01:36.892Z,101961.63
2023-05-08T21:04:03.546Z,101959.31
2023-05-08T21:06:30.029Z,101951.78
2023-05-08T21:08:57.692Z,101957.63
2023-05-08T21:11:24.059Z,101958.03
2023-05-08T21:13:50.476Z,101956.38
2023-05-08T21:16:17.217Z,101952.81
2023-05-08T21:18:43.728Z,101946.56
2023-05-08T21:21:19.922Z,101941.94
2023-05-08T21:23:46.306Z,101934.84
2023-05-08T21:26:12.687Z,101935.69
2023-05-08T21:28:39.141Z,101935.44
2023-05-08T21:31:05.749Z,101930.22
2023-05-08T21:33:33.746Z,101931.47
2023-05-08T21:36:00.383Z,101929.59
2023-05-08T21:38:26.888Z,101921.66
2023-05-08T21:40:53.674Z,101922.72
2023-05-08T21:43:20.156Z,101924.78
2023-05-08T21:45:46.587Z,101916.63
2023-05-08T21:48:13.028Z,101909.53
2023-05-08T21:50:39.452Z,101900.69
2023-05-08T21:53:05.825Z,101898.84
2023-05-08T21:55:32.593Z,101888.81
2023-05-08T21:57:59.045Z,101877.09
2023-05-08T22:00:25.569Z,101875.38
2023-05-08T22:02:53.151Z,101864.72
2023-05-08T22:05:19.723Z,101862.19
2023-05-08T22:07:46.531Z,101865.16
2023-05-08T22:10:13.853Z,101856.38
2023-05-08T22:12:40.266Z,101853.84
2023-05-08T22:15:14.902Z,101858.88
2023-05-08T22:17:49.565Z,101848.22
2023-05-08T22:20:16.110Z,101852.81
2023-05-08T22:22:42.601Z,101853.88
2023-05-08T22:25:09.269Z,101848.63
2023-05-08T22:27:35.753Z,101851.34
2023-05-08T22:30:03.948Z,101852.19
2023-05-08T22:32:30.401Z,101841.94
2023-05-08T22:34:56.916Z,101837.34
2023-05-08T22:37:23.410Z,101836.50
2023-05-08T22:39:49.816Z,101831.06
2023-05-08T22:42:16.572Z,101827.50
2023-05-08T22:44:44.161Z,101824.78
2023-05-08T22:47:11.842Z,101811.44
2023-05-08T22:49:39.979Z,101813.31
2023-05-08T22:52:07.649Z,101807.00
2023-05-08T22:54:34.281Z,101804.53
2023-05-08T22:57:01.602Z,101799.31
2023-05-08T22:59:28.076Z,101791.34
2023-05-08T23:01:54.451Z,101788.84
2023-05-08T23:04:21.469Z,101783.00
2023-05-08T23:06:47.958Z,101789.66
2023-05-08T23:09:14.431Z,101776.53
2023-05-08T23:11:40.879Z,101774.63
2023-05-08T23:14:07.324Z,101771.09
2023-05-08T23:16:33.751Z,101765.66
2023-05-08T23:19:00.325Z,101761.69
2023-05-08T23:21:27.768Z,101756.03
2023-05-08T23:23:54.358Z,101761.44
2023-05-08T23:26:20.824Z,101766.69
2023-05-08T23:28:47.229Z,101763.97
2023-05-08T23:31:13.663Z,101763.16
2023-05-08T23:33:40.224Z,101763.16
2023-05-08T23:36:07.002Z,101763.97
2023-05-08T23:38:33.466Z,101755.00
2023-05-08T23:40:59.887Z,101757.72
2023-05-08T23:43:26.326Z,101756.03
2023-05-08T23:45:52.771Z,101752.47
2023-05-08T23:48:19.181Z,101751.63
2023-05-08T23:50:46.380Z,101752.47
2023-05-08T23:53:13.142Z,101749.75
2023-05-08T23:55:39.618Z,101757.91
2023-05-08T23:58:06.177Z,101752.69
